Time;durP1;ratioP1;P1;durP2;ratioP2;P2;SDS_P1;SDS_P2;PMS_P1;PMS_P2;Temp;Humidity;BMP_temperature;BMP_pressure;BME280_temperature;BME280_humidity;BME280_pressure;Samples;Min_cycle;Max_cycle;Signal;HPM_P1;HPM_P2
2021/01/02 00:02:04;;;;;;;40.58;14.35;;;;;;;6.87;98.68;101104.28;1663733;86;21174;-92
2021/01/02 00:04:39;;;;;;;36.95;13.68;;;;;;;6.96;98.68;101105.63;1641101;86;21243;-90
2021/01/02 00:07:28;;;;;;;43.35;15.28;;;;;;;7.00;98.46;101098.79;1578087;89;21223;-92
2021/01/02 00:09:57;;;;;;;40.65;15.15;;;;;;;6.93;98.83;101099.89;1521695;94;21185;-94
2021/01/02 00:12:57;;;;;;;48.83;16.65;;;;;;;6.92;99.07;101097.74;1510024;95;21216;-89
2021/01/02 00:16:01;;;;;;;46.48;15.40;;;;;;;6.90;99.08;101104.36;1509974;94;21185;-92
2021/01/02 00:18:47;;;;;;;43.73;16.03;;;;;;;6.97;99.03;101102.41;1519240;93;21903;-93
2021/01/02 00:21:27;;;;;;;49.42;15.95;;;;;;;6.90;99.17;101110.53;1524294;94;21294;-88
2021/01/02 00:24:36;;;;;;;37.45;14.65;;;;;;;6.90;99.10;101121.77;1491339;95;21214;-92
2021/01/02 00:27:13;;;;;;;40.33;14.80;;;;;;;6.91;99.18;101123.41;1482741;96;21235;-90
2021/01/02 00:30:03;;;;;;;44.80;15.88;;;;;;;6.91;99.09;101112.69;1456216;98;21226;-90
2021/01/02 00:32:57;;;;;;;37.80;14.73;;;;;;;7.00;99.10;101108.66;1456222;98;21647;-91
2021/01/02 00:35:25;;;;;;;42.83;15.72;;;;;;;7.14;98.59;101102.12;1455996;98;21306;-90
2021/01/02 00:38:05;;;;;;;47.65;16.48;;;;;;;7.15;98.13;101103.77;1456233;98;21218;-90
2021/01/02 00:40:34;;;;;;;44.45;16.70;;;;;;;7.17;97.81;101110.23;1421369;100;21282;-89
2021/01/02 00:43:00;;;;;;;46.00;15.43;;;;;;;6.99;97.89;101090.96;1416176;100;21261;-89
2021/01/02 00:45:29;;;;;;;51.95;16.45;;;;;;;7.06;98.10;101106.45;1420704;100;21284;-90
2021/01/02 00:47:56;;;;;;;43.48;15.50;;;;;;;7.17;97.86;101101.66;1421984;100;21346;-90
2021/01/02 00:50:24;;;;;;;44.33;15.85;;;;;;;7.23;97.61;101114.70;1422480;100;21264;-90
2021/01/02 00:53:01;;;;;;;41.18;14.75;;;;;;;7.09;97.99;101116.73;1422363;100;21258;-90
2021/01/02 00:55:39;;;;;;;46.13;16.42;;;;;;;6.99;98.39;101118.57;1421753;100;21649;-90
2021/01/02 00:58:31;;;;;;;42.08;15.50;;;;;;;7.00;98.72;101128.77;1384672;103;21483;-89
2021/01/02 01:01:06;;;;;;;49.18;15.75;;;;;;;7.00;98.74;101134.97;1384446;102;21270;-88
2021/01/02 01:04:02;;;;;;;39.95;14.60;;;;;;;6.95;98.75;101155.42;1381677;103;21646;-88
2021/01/02 01:06:30;;;;;;;43.98;15.83;;;;;;;6.91;98.76;101156.89;1408916;100;21299;-93
2021/01/02 01:09:01;;;;;;;47.38;15.58;;;;;;;6.86;98.93;101158.09;1452405;98;21336;-91
2021/01/02 01:11:35;;;;;;;40.00;15.78;;;;;;;6.82;99.13;101161.22;1454745;97;21243;-89
2021/01/02 01:14:04;;;;;;;43.68;15.35;;;;;;;6.85;99.25;101166.63;1452507;97;21224;-88
2021/01/02 01:16:45;;;;;;;37.63;14.75;;;;;;;6.83;99.14;101169.55;1452363;98;21106;-87
2021/01/02 01:19:18;;;;;;;34.92;12.75;;;;;;;6.86;99.21;101179.00;1459803;98;21227;-87
2021/01/02 01:21:46;;;;;;;37.85;13.10;;;;;;;6.83;99.24;101174.91;1478184;96;21287;-88
2021/01/02 01:24:43;;;;;;;27.35;11.68;;;;;;;6.78;99.17;101181.44;1521545;93;21268;-88
2021/01/02 01:27:29;;;;;;;30.08;11.65;;;;;;;6.72;99.03;101186.86;1560890;91;21678;-89
2021/01/02 01:30:00;;;;;;;31.52;12.75;;;;;;;6.79;99.29;101182.25;1563501;90;21229;-88
2021/01/02 01:32:28;;;;;;;37.53;13.68;;;;;;;6.66;99.39;101185.87;1563579;91;22183;-88
2021/01/02 01:35:00;;;;;;;39.45;14.60;;;;;;;6.75;99.49;101185.08;1563519;91;21175;-89
2021/01/02 01:37:32;;;;;;;38.90;14.55;;;;;;;6.77;99.50;101186.50;1563577;91;21218;-91
2021/01/02 01:40:00;;;;;;;40.37;14.20;;;;;;;6.82;99.34;101183.14;1536448;93;21584;-89
2021/01/02 01:42:42;;;;;;;36.68;13.60;;;;;;;6.86;99.18;101174.17;1536261;91;21262;-90
2021/01/02 01:45:43;;;;;;;39.98;14.78;;;;;;;6.83;99.38;101178.92;1536041;93;21119;-89
2021/01/02 01:48:16;;;;;;;41.80;14.83;;;;;;;6.82;99.31;101179.13;1490607;96;21294;-90
2021/01/02 01:51:11;;;;;;;38.80;14.70;;;;;;;6.80;99.36;101180.70;1490775;96;21226;-90
2021/01/02 01:54:12;;;;;;;45.08;14.35;;;;;;;6.83;99.52;101173.56;1489848;94;21525;-89
2021/01/02 01:56:49;;;;;;;41.48;14.95;;;;;;;6.93;99.42;101177.59;1508943;95;21234;-90
2021/01/02 01:59:24;;;;;;;36.25;13.58;;;;;;;6.97;98.94;101174.76;1508856;95;21710;-89
2021/01/02 02:01:55;;;;;;;37.23;13.28;;;;;;;6.95;98.97;101186.23;1536522;90;21173;-88
2021/01/02 02:05:03;;;;;;;36.30;13.15;;;;;;;7.00;98.74;101191.73;1590504;90;21701;-90
2021/01/02 02:08:03;;;;;;;40.00;13.43;;;;;;;6.96;98.82;101186.00;1573356;90;21203;-89
2021/01/02 02:10:35;;;;;;;39.73;13.38;;;;;;;6.94;98.73;101197.97;1573607;91;21188;-88
2021/01/02 02:13:14;;;;;;;37.20;14.13;;;;;;;6.94;98.30;101196.64;1573395;91;21231;-89
2021/01/02 02:15:56;;;;;;;36.55;13.53;;;;;;;6.99;98.39;101196.80;1572643;90;21187;-92
2021/01/02 02:18:29;;;;;;;36.83;13.38;;;;;;;6.93;98.51;101205.20;1577008;90;21261;-90
2021/01/02 02:21:00;;;;;;;41.53;14.07;;;;;;;6.91;98.56;101211.31;1582152;90;21632;-91
2021/01/02 02:23:42;;;;;;;38.08;13.48;;;;;;;7.00;98.14;101211.83;1581892;90;21230;-91
2021/01/02 02:26:34;;;;;;;42.13;14.58;;;;;;;6.96;98.31;101219.49;1581877;90;21256;-90
2021/01/02 02:29:22;;;;;;;45.92;14.80;;;;;;;6.91;98.65;101220.70;1581888;90;21251;-90
2021/01/02 02:31:47;;;;;;;44.27;14.50;;;;;;;6.92;98.75;101219.65;1549079;92;21234;-90
2021/01/02 02:34:14;;;;;;;43.63;15.08;;;;;;;6.95;98.69;101219.73;1554658;92;21134;-90
2021/01/02 02:39:12;;;;;;;39.65;14.28;;;;;;;6.91;98.95;101228.73;1496502;94;21287;-90
2021/01/02 02:41:46;;;;;;;44.65;15.00;;;;;;;7.03;98.84;101230.98;1496395;94;21286;-89
2021/01/02 02:44:17;;;;;;;45.45;15.28;;;;;;;6.97;98.92;101238.57;1506403;91;21695;-90
2021/01/02 02:46:45;;;;;;;43.73;14.50;;;;;;;6.90;98.98;101244.48;1566346;91;21676;-90
2021/01/02 02:49:16;;;;;;;42.62;13.85;;;;;;;6.91;98.96;101249.33;1566476;91;21426;-90
2021/01/02 02:51:56;;;;;;;44.03;15.28;;;;;;;7.00;99.10;101248.84;1566343;91;21608;-90
2021/01/02 02:54:23;;;;;;;40.17;14.45;;;;;;;6.96;99.01;101252.98;1565477;91;21268;-90
2021/01/02 02:56:50;;;;;;;43.33;14.45;;;;;;;6.98;99.00;101250.10;1566204;91;21258;-90
2021/01/02 02:59:16;;;;;;;41.70;13.98;;;;;;;7.09;98.75;101247.20;1546269;91;21602;-90
2021/01/02 03:01:48;;;;;;;45.50;15.13;;;;;;;7.04;98.90;101247.88;1573483;90;21045;-90
2021/01/02 03:04:15;;;;;;;52.48;15.65;;;;;;;6.98;98.78;101250.10;1586726;88;20969;-90
2021/01/02 03:06:43;;;;;;;47.50;14.75;;;;;;;7.01;98.74;101251.00;1600912;88;21242;-90
2021/01/02 03:09:10;;;;;;;45.85;15.72;;;;;;;7.11;98.53;101252.64;1600930;89;21184;-90
2021/01/02 03:11:37;;;;;;;49.35;15.85;;;;;;;7.04;98.66;101250.56;1600790;89;21349;-90
2021/01/02 03:14:03;;;;;;;52.08;16.55;;;;;;;7.00;98.75;101253.36;1600755;89;21159;-89
2021/01/02 03:16:31;;;;;;;43.55;15.60;;;;;;;7.11;98.23;101258.01;1601004;89;21168;-89
2021/01/02 03:18:57;;;;;;;47.93;15.65;;;;;;;7.00;98.47;101262.73;1601244;88;21620;-88
2021/01/02 03:21:23;;;;;;;59.25;16.02;;;;;;;7.00;98.75;101270.28;1600915;89;21280;-89
2021/01/02 03:23:50;;;;;;;53.08;16.65;;;;;;;7.00;98.54;101265.42;1579883;89;21599;-89
2021/01/02 03:26:17;;;;;;;48.10;15.90;;;;;;;6.96;98.59;101276.28;1600865;89;21183;-89
2021/01/02 03:28:51;;;;;;;59.03;16.35;;;;;;;6.98;98.72;101281.73;1636472;86;21175;-88
2021/01/02 03:31:19;;;;;;;51.63;14.95;;;;;;;7.01;98.29;101282.63;1667730;86;21232;-89
2021/01/02 03:33:45;;;;;;;55.75;16.60;;;;;;;6.92;98.57;101282.61;1667475;86;21271;-88
2021/01/02 03:36:12;;;;;;;56.90;16.07;;;;;;;6.88;98.72;101289.95;1704920;82;21161;-86
2021/01/02 03:38:39;;;;;;;49.53;14.65;;;;;;;6.90;98.77;101296.73;1734525;82;21105;-86
2021/01/02 03:41:05;;;;;;;44.03;13.90;;;;;;;6.91;98.42;101302.91;1734628;82;21064;-86
2021/01/02 03:43:35;;;;;;;49.38;14.70;;;;;;;6.85;98.63;101297.08;1734787;82;21109;-86
2021/01/02 03:45:59;;;;;;;51.58;15.40;;;;;;;6.76;98.78;101303.22;1731411;82;21121;-87
2021/01/02 03:48:25;;;;;;;55.10;16.40;;;;;;;6.71;98.91;101300.39;1734701;82;20907;-86
2021/01/02 03:50:51;;;;;;;57.10;16.97;;;;;;;6.69;99.14;101305.95;1734778;82;20995;-86
2021/01/02 03:53:17;;;;;;;50.83;16.57;;;;;;;6.67;99.21;101309.36;1734539;82;20951;-86
2021/01/02 03:55:43;;;;;;;53.28;17.17;;;;;;;6.66;99.41;101307.73;1734712;82;21130;-86
2021/01/02 03:58:09;;;;;;;64.30;17.62;;;;;;;6.71;99.71;101321.82;1734719;82;21244;-86
2021/01/02 04:00:35;;;;;;;64.58;17.92;;;;;;;6.69;99.32;101328.72;1734627;81;21656;-87
2021/01/02 04:03:01;;;;;;;56.68;18.48;;;;;;;6.70;99.42;101335.70;1734817;81;21175;-88
2021/01/02 04:05:30;;;;;;;58.02;17.45;;;;;;;6.78;99.53;101335.45;1735054;82;21495;-88
2021/01/02 04:07:55;;;;;;;71.15;20.08;;;;;;;6.80;99.56;101349.47;1734618;82;21172;-89
2021/01/02 04:10:21;;;;;;;74.65;21.95;;;;;;;6.85;99.51;101343.96;1734700;82;21146;-87
2021/01/02 04:12:47;;;;;;;73.40;19.75;;;;;;;6.82;99.06;101349.23;1734429;82;20935;-88
2021/01/02 04:15:13;;;;;;;74.75;21.02;;;;;;;6.82;99.10;101352.75;1734443;82;21657;-88
2021/01/02 04:17:39;;;;;;;77.47;22.07;;;;;;;6.86;99.19;101359.02;1734877;82;21003;-88
2021/01/02 04:20:06;;;;;;;72.27;21.20;;;;;;;6.80;99.05;101362.86;1714018;82;21039;-88
2021/01/02 04:22:32;;;;;;;77.72;22.05;;;;;;;6.82;99.24;101362.63;1734846;82;21949;-88
2021/01/02 04:25:00;;;;;;;77.45;22.42;;;;;;;6.81;99.20;101364.48;1734742;82;21568;-88
2021/01/02 04:27:26;;;;;;;76.47;21.42;;;;;;;6.87;99.10;101368.69;1734824;82;21149;-89
2021/01/02 04:29:52;;;;;;;94.13;25.55;;;;;;;6.90;99.16;101381.12;1735051;82;21701;-90
2021/01/02 04:32:18;;;;;;;95.03;26.37;;;;;;;6.93;99.20;101384.72;1734958;82;21177;-88
2021/01/02 04:34:44;;;;;;;94.47;26.33;;;;;;;6.92;99.14;101385.77;1734838;82;21617;-88
2021/01/02 04:37:09;;;;;;;96.28;26.75;;;;;;;6.83;99.18;101403.13;1731451;82;21113;-88
2021/01/02 04:39:35;;;;;;;90.75;26.15;;;;;;;6.80;99.56;101400.88;1734774;81;20935;-88
2021/01/02 04:42:01;;;;;;;88.25;25.90;;;;;;;6.69;100.00;101413.09;1734512;82;20995;-88
2021/01/02 04:44:28;;;;;;;80.53;26.35;;;;;;;6.69;100.00;101422.98;1735820;81;21125;-87
2021/01/02 04:46:55;;;;;;;85.07;23.77;;;;;;;6.67;100.00;101412.99;1734880;82;21163;-88
2021/01/02 04:49:21;;;;;;;81.12;24.27;;;;;;;6.70;100.00;101425.44;1734893;82;21153;-88
2021/01/02 04:51:48;;;;;;;73.57;22.93;;;;;;;6.76;100.00;101435.30;1735472;81;21125;-88
2021/01/02 04:54:16;;;;;;;74.47;21.97;;;;;;;6.72;100.00;101439.97;1734862;82;21173;-88
2021/01/02 04:56:41;;;;;;;63.92;19.45;;;;;;;6.66;100.00;101446.99;1713951;82;21121;-88
2021/01/02 04:59:13;;;;;;;71.02;19.40;;;;;;;6.65;100.00;101452.05;1734352;82;21177;-87
2021/01/02 05:01:41;;;;;;;56.00;17.82;;;;;;;6.70;100.00;101460.25;1734668;81;21157;-88
2021/01/02 05:04:10;;;;;;;64.12;18.02;;;;;;;6.60;100.00;101462.58;1734819;82;21189;-88
2021/01/02 05:06:37;;;;;;;59.63;17.80;;;;;;;6.58;100.00;101468.65;1734490;82;21062;-88
2021/01/02 05:09:06;;;;;;;43.73;15.28;;;;;;;6.46;99.42;101480.53;1734757;82;21161;-89
2021/01/02 05:11:38;;;;;;;54.20;16.12;;;;;;;6.55;99.25;101490.50;1734975;81;21899;-88
2021/01/02 05:14:05;;;;;;;47.48;14.43;;;;;;;6.52;99.34;101490.92;1666595;84;21694;-90
2021/01/02 05:16:42;;;;;;;43.55;14.35;;;;;;;6.47;98.80;101500.94;1666200;85;21504;-88
2021/01/02 05:19:11;;;;;;;42.70;13.45;;;;;;;6.36;97.66;101501.05;1662777;85;21230;-88
2021/01/02 05:21:46;;;;;;;38.28;13.78;;;;;;;6.40;97.92;101508.14;1658707;85;21194;-87
2021/01/02 05:26:54;;;;;;;29.98;10.43;;;;;;;6.18;96.96;101507.58;1577184;90;21252;-87
2021/01/02 05:29:29;;;;;;;31.05;11.53;;;;;;;6.30;97.08;101515.28;1550331;91;21204;-88
2021/01/02 05:32:01;;;;;;;36.35;12.70;;;;;;;5.92;96.48;101521.77;1518299;94;21211;-88
2021/01/02 05:34:33;;;;;;;26.27;10.53;;;;;;;6.19;96.96;101523.94;1530088;93;21224;-88
2021/01/02 05:37:08;;;;;;;24.70;9.90;;;;;;;6.07;95.92;101538.45;1530205;93;21218;-89
2021/01/02 05:39:49;;;;;;;26.27;10.50;;;;;;;6.08;96.24;101541.43;1520091;91;21267;-89
2021/01/02 05:42:15;;;;;;;28.60;11.57;;;;;;;5.85;96.04;101549.86;1507340;93;21305;-89
2021/01/02 05:44:42;;;;;;;27.98;11.15;;;;;;;5.88;96.68;101545.44;1507241;93;21196;-89
2021/01/02 05:47:12;;;;;;;23.98;10.20;;;;;;;5.76;96.71;101556.41;1507395;93;21535;-89
2021/01/02 05:49:41;;;;;;;25.32;10.28;;;;;;;5.80;97.09;101560.86;1490931;95;21857;-89
2021/01/02 05:52:11;;;;;;;24.70;10.13;;;;;;;5.86;97.05;101568.87;1491082;95;21150;-89
2021/01/02 05:54:49;;;;;;;25.45;10.45;;;;;;;5.88;97.18;101575.34;1448777;99;21069;-88
2021/01/02 05:57:30;;;;;;;27.17;10.60;;;;;;;5.88;96.74;101581.55;1447396;99;21353;-89
2021/01/02 05:59:58;;;;;;;27.50;11.88;;;;;;;5.94;97.40;101591.12;1438949;99;21190;-89
2021/01/02 06:02:33;;;;;;;25.05;9.98;;;;;;;5.93;96.79;101594.33;1397774;102;21501;-89
2021/01/02 06:05:09;;;;;;;28.67;11.78;;;;;;;5.95;96.98;101602.16;1397948;102;21290;-89
2021/01/02 06:07:41;;;;;;;24.98;10.32;;;;;;;5.95;96.92;101610.19;1390422;102;21316;-89
2021/01/02 06:10:10;;;;;;;29.77;10.70;;;;;;;5.96;96.87;101619.33;1393808;100;21744;-89
2021/01/02 06:12:39;;;;;;;25.70;11.10;;;;;;;5.99;97.06;101626.13;1424381;100;21429;-89
2021/01/02 06:15:16;;;;;;;28.10;10.48;;;;;;;6.07;97.28;101638.80;1424445;100;21406;-89
2021/01/02 06:17:48;;;;;;;25.35;9.50;;;;;;;6.06;97.08;101643.00;1424329;100;21350;-89
2021/01/02 06:20:18;;;;;;;27.93;10.80;;;;;;;5.91;95.43;101654.70;1417944;99;21568;-88
2021/01/02 06:22:45;;;;;;;24.98;9.40;;;;;;;5.96;96.22;101660.80;1419881;98;21278;-88
2021/01/02 06:25:14;;;;;;;25.02;10.60;;;;;;;5.91;95.02;101660.54;1461746;98;21306;-87
2021/01/02 06:27:42;;;;;;;23.45;10.00;;;;;;;5.96;96.08;101663.99;1467447;96;21221;-89
2021/01/02 06:30:09;;;;;;;27.13;10.48;;;;;;;5.96;96.23;101668.01;1490601;95;21221;-88
2021/01/02 06:32:37;;;;;;;30.15;11.18;;;;;;;5.98;96.18;101676.66;1511930;94;21262;-87
2021/01/02 06:35:14;;;;;;;26.77;10.18;;;;;;;5.97;95.99;101675.84;1509060;93;21226;-87
2021/01/02 06:37:51;;;;;;;22.85;9.93;;;;;;;6.01;96.07;101682.95;1512693;94;21199;-88
2021/01/02 06:40:23;;;;;;;23.62;9.85;;;;;;;6.04;96.25;101687.37;1418361;100;21289;-88
2021/01/02 06:42:59;;;;;;;23.87;9.35;;;;;;;6.07;96.13;101698.19;1417076;101;21212;-87
2021/01/02 06:45:42;;;;;;;25.23;9.88;;;;;;;6.09;96.11;101697.48;1399589;102;21406;-88
2021/01/02 06:50:55;;;;;;;24.98;10.75;;;;;;;6.00;95.38;101706.21;1345469;104;21267;-89
2021/01/02 06:53:26;;;;;;;24.37;10.50;;;;;;;6.00;95.31;101707.55;1356437;104;22029;-88
2021/01/02 06:56:10;;;;;;;24.45;10.60;;;;;;;5.99;95.10;101713.91;1388151;101;21350;-88
2021/01/02 06:58:46;;;;;;;25.05;10.90;;;;;;;6.00;95.28;101708.88;1431806;95;21198;-88
2021/01/02 07:01:26;;;;;;;29.32;11.22;;;;;;;6.10;95.75;101720.53;1503765;95;21707;-88
2021/01/02 07:03:52;;;;;;;28.50;11.53;;;;;;;6.18;96.09;101731.05;1503787;95;21225;-88
2021/01/02 07:06:25;;;;;;;28.67;11.38;;;;;;;6.28;96.21;101731.47;1503708;95;21392;-88
2021/01/02 07:09:02;;;;;;;29.72;10.70;;;;;;;6.34;95.92;101729.31;1503842;95;21206;-88
2021/01/02 07:11:38;;;;;;;25.10;10.55;;;;;;;6.37;95.09;101737.46;1503795;95;21549;-89
2021/01/02 07:14:15;;;;;;;26.45;10.85;;;;;;;6.39;95.43;101740.77;1503877;95;21537;-88
2021/01/02 07:17:11;;;;;;;26.05;10.28;;;;;;;6.39;95.07;101751.48;1508937;91;21728;-89
2021/01/02 07:19:43;;;;;;;28.07;10.88;;;;;;;6.40;94.92;101750.96;1565117;91;21190;-88
2021/01/02 07:22:20;;;;;;;29.85;11.20;;;;;;;6.44;95.30;101765.58;1563367;91;21290;-89
2021/01/02 07:24:57;;;;;;;26.02;11.00;;;;;;;6.47;95.26;101771.86;1561047;90;21642;-88
2021/01/02 07:27:28;;;;;;;23.67;10.15;;;;;;;6.49;95.52;101773.31;1536759;90;21313;-89
2021/01/02 07:30:07;;;;;;;19.62;9.33;;;;;;;6.53;95.52;101777.25;1562644;90;21770;-87
2021/01/02 07:32:40;;;;;;;18.40;8.08;;;;;;;6.55;95.10;101783.20;1552000;91;21372;-89
2021/01/02 07:35:15;;;;;;;21.65;9.10;;;;;;;6.55;94.51;101787.23;1551516;91;21186;-88
2021/01/02 07:37:46;;;;;;;29.95;9.35;;;;;;;6.46;93.35;101791.64;1551769;91;21270;-88
2021/01/02 07:40:18;;;;;;;19.02;8.55;;;;;;;6.31;94.24;101781.11;1551776;91;21198;-88
2021/01/02 07:42:54;;;;;;;21.82;8.75;;;;;;;6.37;93.45;101800.38;1560511;91;21393;-89
2021/01/02 07:45:26;;;;;;;19.60;8.68;;;;;;;6.46;94.33;101809.05;1621747;87;22325;-89
2021/01/02 07:47:55;;;;;;;20.27;8.50;;;;;;;6.36;94.16;101806.77;1600085;87;21551;-88
2021/01/02 07:50:25;;;;;;;20.20;8.60;;;;;;;6.35;94.44;101811.30;1600805;88;21213;-90
2021/01/02 07:53:06;;;;;;;20.20;8.70;;;;;;;6.38;94.72;101815.41;1622030;88;21181;-88
2021/01/02 07:55:34;;;;;;;18.50;8.73;;;;;;;6.43;94.91;101821.50;1622069;87;21184;-87
2021/01/02 07:58:03;;;;;;;18.92;8.60;;;;;;;6.43;94.17;101830.88;1600599;88;21249;-87
2021/01/02 08:00:30;;;;;;;18.62;8.28;;;;;;;6.48;94.34;101835.12;1622012;88;21280;-89
2021/01/02 08:03:04;;;;;;;20.12;8.60;;;;;;;6.60;94.11;101841.53;1621773;88;21181;-89
2021/01/02 08:05:33;;;;;;;18.73;7.70;;;;;;;6.51;93.83;101848.11;1621716;87;21232;-89
2021/01/02 08:08:01;;;;;;;17.00;7.40;;;;;;;6.56;94.24;101846.48;1618122;88;21221;-89
2021/01/02 08:10:38;;;;;;;18.10;7.50;;;;;;;6.61;94.15;101851.20;1621519;87;21358;-87
2021/01/02 08:13:00;;;;;;;;;;;;;;;6.53;93.35;101850.89;1578553;89;21235;-88
2021/01/02 08:15:37;;;;;;;13.53;6.90;;;;;;;6.41;91.75;101851.66;1578281;89;20310;-87
2021/01/02 08:18:08;;;;;;;16.75;7.45;;;;;;;6.44;92.68;101862.82;1583313;87;21189;-85
2021/01/02 08:20:54;;;;;;;18.07;7.30;;;;;;;6.47;93.38;101861.08;1618384;87;21211;-91
2021/01/02 08:23:20;;;;;;;17.70;6.75;;;;;;;6.47;92.57;101865.58;1608007;87;21415;-91
2021/01/02 08:25:48;;;;;;;16.70;7.33;;;;;;;6.46;92.77;101875.47;1625642;87;21218;-89
2021/01/02 08:28:17;;;;;;;18.10;6.62;;;;;;;6.45;92.38;101882.38;1625653;87;21226;-90
2021/01/02 08:30:42;;;;;;;13.03;6.58;;;;;;;6.41;92.69;101878.44;1626856;87;21231;-89
2021/01/02 08:33:12;;;;;;;19.77;7.70;;;;;;;6.41;92.45;101881.11;1625882;87;21711;-86
2021/01/02 08:35:41;;;;;;;18.27;7.17;;;;;;;6.50;93.21;101881.25;1604376;88;21375;-87
2021/01/02 08:38:10;;;;;;;14.78;6.60;;;;;;;6.58;93.16;101880.55;1626205;87;21687;-87
2021/01/02 08:40:49;;;;;;;15.58;6.45;;;;;;;6.54;91.70;101880.66;1626265;87;21667;-87
2021/01/02 08:43:22;;;;;;;15.45;6.90;;;;;;;6.61;92.65;101880.67;1508426;94;21271;-89
2021/01/02 08:45:48;;;;;;;17.00;6.58;;;;;;;6.60;91.45;101879.85;1508338;93;21292;-90
2021/01/02 08:48:16;;;;;;;17.48;6.72;;;;;;;6.69;92.49;101889.87;1508373;94;21953;-90
2021/01/02 08:50:42;;;;;;;14.87;6.50;;;;;;;6.71;92.75;101886.48;1508376;93;21276;-90
2021/01/02 08:53:31;;;;;;;16.65;6.95;;;;;;;6.75;92.36;101891.73;1508480;94;21331;-88
2021/01/02 08:55:57;;;;;;;16.37;6.15;;;;;;;6.90;92.42;101899.60;1506116;94;21275;-90
2021/01/02 08:58:38;;;;;;;14.80;6.17;;;;;;;6.80;91.84;101902.68;1508580;94;21252;-90
2021/01/02 09:01:04;;;;;;;17.65;7.08;;;;;;;6.76;91.69;101905.95;1508245;93;21237;-89
2021/01/02 09:03:30;;;;;;;20.75;7.42;;;;;;;6.77;91.65;101904.95;1508475;93;21260;-90
2021/01/02 09:05:57;;;;;;;15.95;6.62;;;;;;;6.73;91.03;101904.50;1508458;94;21112;-89
2021/01/02 09:08:23;;;;;;;14.43;5.97;;;;;;;6.73;90.71;101907.70;1462083;98;21297;-92
2021/01/02 09:10:57;;;;;;;14.13;5.80;;;;;;;6.77;90.23;101909.78;1462482;98;21042;-89
2021/01/02 09:13:24;;;;;;;17.23;6.28;;;;;;;6.69;88.88;101905.94;1462052;97;21318;-90
2021/01/02 09:18:40;;;;;;;11.75;5.47;;;;;;;6.81;91.09;101913.70;1389511;101;21332;-90
2021/01/02 09:21:15;;;;;;;15.30;6.00;;;;;;;6.87;91.01;101916.09;1442269;96;21273;-89
2021/01/02 09:23:42;;;;;;;11.73;5.67;;;;;;;6.88;90.00;101920.41;1463370;96;21086;-92
2021/01/02 09:26:28;;;;;;;11.45;5.28;;;;;;;6.86;89.97;101917.64;1463387;98;21282;-92
2021/01/02 09:28:58;;;;;;;13.85;4.90;;;;;;;6.82;88.46;101923.41;1474887;95;21241;-93
2021/01/02 09:31:25;;;;;;;13.50;5.40;;;;;;;6.81;88.64;101916.38;1498910;95;21221;-93
2021/01/02 09:33:52;;;;;;;13.05;5.05;;;;;;;6.83;88.52;101924.23;1498791;95;21663;-89
2021/01/02 09:36:22;;;;;;;12.95;4.97;;;;;;;6.76;88.37;101925.53;1498873;95;21689;-89
2021/01/02 09:38:49;;;;;;;11.57;5.10;;;;;;;6.71;88.41;101929.86;1496390;95;21226;-90
2021/01/02 09:41:20;;;;;;;9.75;4.65;;;;;;;6.79;88.42;101926.98;1482203;96;21284;-92
2021/01/02 09:43:48;;;;;;;11.28;4.95;;;;;;;6.62;86.82;101928.36;1445991;99;21713;-93
2021/01/02 09:46:17;;;;;;;11.28;4.90;;;;;;;6.58;88.05;101930.62;1445914;99;21590;-92
2021/01/02 09:48:48;;;;;;;12.15;5.22;;;;;;;6.42;87.12;101932.32;1446021;99;21331;-90
2021/01/02 09:51:15;;;;;;;11.73;5.37;;;;;;;6.57;89.08;101935.67;1397691;102;22574;-93
2021/01/02 09:53:44;;;;;;;12.53;5.70;;;;;;;6.63;89.30;101936.21;1397738;102;21669;-92
2021/01/02 09:56:10;;;;;;;13.43;5.10;;;;;;;6.68;89.12;101939.64;1397859;102;21259;-91
2021/01/02 09:58:36;;;;;;;11.93;5.42;;;;;;;6.70;88.67;101938.39;1397965;102;21336;-93
2021/01/02 10:01:04;;;;;;;13.10;5.60;;;;;;;6.76;89.22;101938.92;1397841;102;21244;-92
2021/01/02 10:03:30;;;;;;;13.32;5.35;;;;;;;6.74;87.90;101939.66;1397439;102;21483;-91
2021/01/02 10:05:56;;;;;;;11.68;5.25;;;;;;;6.86;88.12;101946.59;1400714;102;21153;-89
2021/01/02 10:08:23;;;;;;;12.30;5.08;;;;;;;6.54;84.67;101950.80;1386402;102;21225;-91
2021/01/02 10:10:51;;;;;;;11.00;5.22;;;;;;;6.62;87.10;101947.96;1400996;102;21302;-91
2021/01/02 10:13:18;;;;;;;10.03;4.25;;;;;;;6.61;87.27;101942.27;1410369;101;21726;-90
2021/01/02 10:15:44;;;;;;;10.28;4.85;;;;;;;6.68;87.12;101949.84;1472201;95;22350;-93
2021/01/02 10:18:10;;;;;;;9.25;4.65;;;;;;;6.74;86.84;101949.55;1491920;95;21064;-89
2021/01/02 10:20:36;;;;;;;11.70;5.28;;;;;;;6.74;86.77;101949.55;1503032;93;21071;-91
2021/01/02 10:23:03;;;;;;;11.48;4.40;;;;;;;6.75;87.11;101953.88;1517667;93;21117;-91
2021/01/02 10:25:29;;;;;;;11.38;4.67;;;;;;;6.58;84.84;101958.74;1517544;94;21222;-89
2021/01/02 10:27:55;;;;;;;9.38;4.33;;;;;;;6.49;84.73;101963.44;1517506;93;21281;-90
2021/01/02 10:30:21;;;;;;;8.75;4.55;;;;;;;6.62;85.85;101961.36;1517210;93;21197;-89
2021/01/02 10:32:47;;;;;;;7.80;4.08;;;;;;;6.66;85.73;101967.95;1517531;94;21238;-89
2021/01/02 10:35:16;;;;;;;9.23;4.35;;;;;;;6.62;85.45;101968.54;1517660;94;21448;-89
2021/01/02 10:37:46;;;;;;;12.15;4.40;;;;;;;6.63;86.04;101967.53;1517768;93;21202;-89
2021/01/02 10:40:14;;;;;;;9.03;4.40;;;;;;;6.58;84.98;101966.78;1541395;89;21924;-89
2021/01/02 10:42:40;;;;;;;11.38;4.87;;;;;;;6.64;86.36;101965.98;1617010;86;21117;-90
2021/01/02 10:45:20;;;;;;;9.35;4.30;;;;;;;6.74;87.17;101961.61;1599238;86;21017;-90
2021/01/02 10:47:47;;;;;;;10.88;4.70;;;;;;;6.96;87.10;101959.09;1605201;86;21717;-90
2021/01/02 10:50:13;;;;;;;8.58;4.58;;;;;;;6.88;85.65;101959.26;1632354;87;21528;-91
2021/01/02 10:52:39;;;;;;;9.30;4.60;;;;;;;6.91;86.18;101959.37;1702140;83;21220;-91
2021/01/02 10:55:06;;;;;;;6.70;3.85;;;;;;;6.95;86.09;101957.97;1701532;83;21632;-91
2021/01/02 10:57:32;;;;;;;10.78;4.83;;;;;;;6.84;84.05;101959.36;1700736;84;21233;-90
2021/01/02 10:59:59;;;;;;;8.48;4.25;;;;;;;6.93;85.39;101960.83;1701364;83;20974;-90
2021/01/02 11:02:25;;;;;;;8.23;4.15;;;;;;;7.04;85.88;101962.11;1702132;83;21161;-90
2021/01/02 11:04:52;;;;;;;10.28;4.75;;;;;;;6.98;84.20;101962.92;1697334;84;22019;-91
2021/01/02 11:07:23;;;;;;;8.73;4.58;;;;;;;6.98;82.92;101969.09;1645815;86;21024;-90
2021/01/02 11:09:46;;;;;;;10.40;5.12;;;;;;;6.96;83.87;101971.66;1646965;85;21244;-90
2021/01/02 11:12:12;;;;;;;8.85;4.65;;;;;;;6.97;83.87;101974.16;1653239;85;20964;-90
2021/01/02 11:14:40;;;;;;;10.08;4.70;;;;;;;6.95;84.01;101973.52;1654419;86;21137;-89
2021/01/02 11:17:06;;;;;;;12.18;5.35;;;;;;;6.96;83.83;101985.06;1655525;86;22018;-90
2021/01/02 11:19:33;;;;;;;10.08;5.10;;;;;;;7.00;84.78;101984.96;1682732;83;21626;-90
2021/01/02 11:22:02;;;;;;;12.82;5.12;;;;;;;7.00;84.61;101988.50;1701492;83;21240;-91
2021/01/02 11:24:33;;;;;;;12.35;5.20;;;;;;;7.00;83.58;101988.98;1714347;81;21146;-90
2021/01/02 11:27:28;;;;;;;10.72;5.20;;;;;;;7.02;83.36;101993.11;1714029;82;21017;-90
2021/01/02 11:29:54;;;;;;;12.70;5.67;;;;;;;6.78;81.26;101988.30;1686753;84;21747;-94
2021/01/02 11:32:23;;;;;;;9.80;5.25;;;;;;;6.89;83.28;101990.92;1710587;82;21192;-92
2021/01/02 11:34:49;;;;;;;11.60;5.53;;;;;;;6.80;82.11;101995.11;1744620;82;21184;-92
2021/01/02 11:37:15;;;;;;;14.35;6.20;;;;;;;6.88;83.34;101998.11;1744340;82;22389;-94
2021/01/02 11:39:41;;;;;;;12.10;5.50;;;;;;;6.82;81.55;102000.25;1741701;82;21659;-93
2021/01/02 11:42:10;;;;;;;13.78;6.40;;;;;;;6.89;83.68;102008.34;1710111;82;21265;-95
2021/01/02 11:44:37;;;;;;;16.00;6.80;;;;;;;6.88;82.45;102004.81;1692623;84;21207;-94
2021/01/02 11:47:04;;;;;;;12.82;6.10;;;;;;;6.62;79.04;102014.07;1692802;84;21175;-94
2021/01/02 11:49:35;;;;;;;12.10;6.08;;;;;;;6.77;81.21;102008.91;1723106;82;21642;-94
2021/01/02 11:52:07;;;;;;;17.02;6.95;;;;;;;6.86;82.24;102008.23;1671663;84;21192;-94